sensor_id;sensor_type;location;lat;lon;timestamp;pressure;altitude;pressure_sealevel;temperature
49593;BMP280;35499;51.482;4.264;2024-02-28T00:01:02;101978.00;;;5.15
49593;BMP280;35499;51.482;4.264;2024-02-28T00:03:27;101987.31;;;5.15
49593;BMP280;35499;51.482;4.264;2024-02-28T00:05:52;101985.66;;;5.15
49593;BMP280;35499;51.482;4.264;2024-02-28T00:08:18;101983.16;;;5.17
49593;BMP280;35499;51.482;4.264;2024-02-28T00:10:45;101977.25;;;5.18
49593;BMP280;35499;51.482;4.264;2024-02-28T00:13:10;101998.44;;;5.18
49593;BMP280;35499;51.482;4.264;2024-02-28T00:15:36;102002.69;;;5.18
49593;BMP280;35499;51.482;4.264;2024-02-28T00:18:01;101996.69;;;5.16
49593;BMP280;35499;51.482;4.264;2024-02-28T00:20:28;101997.56;;;5.16
49593;BMP280;35499;51.482;4.264;2024-02-28T00:22:55;101994.16;;;5.16
49593;BMP280;35499;51.482;4.264;2024-02-28T00:25:20;101977.97;;;5.14
49593;BMP280;35499;51.482;4.264;2024-02-28T00:27:45;101972.88;;;5.14
49593;BMP280;35499;51.482;4.264;2024-02-28T00:30:11;101983.16;;;5.17
49593;BMP280;35499;51.482;4.264;2024-02-28T00:32:36;101983.16;;;5.17
49593;BMP280;35499;51.482;4.264;2024-02-28T00:35:02;101990.75;;;5.15
49593;BMP280;35499;51.482;4.264;2024-02-28T00:37:27;101989.88;;;5.15
49593;BMP280;35499;51.482;4.264;2024-02-28T00:39:53;101989.06;;;5.16
49593;BMP280;35499;51.482;4.264;2024-02-28T00:42:19;101985.59;;;5.12
49593;BMP280;35499;51.482;4.264;2024-02-28T00:44:44;101983.00;;;5.11
49593;BMP280;35499;51.482;4.264;2024-02-28T00:47:09;101982.13;;;5.10
49593;BMP280;35499;51.482;4.264;2024-02-28T00:49:35;101974.53;;;5.12
49593;BMP280;35499;51.482;4.264;2024-02-28T00:52:00;101981.41;;;5.16
49593;BMP280;35499;51.482;4.264;2024-02-28T00:54:26;101972.06;;;5.15
49593;BMP280;35499;51.482;4.264;2024-02-28T00:56:51;101971.13;;;5.11
49593;BMP280;35499;51.482;4.264;2024-02-28T00:59:17;101972.81;;;5.11
49593;BMP280;35499;51.482;4.264;2024-02-28T01:01:42;101966.81;;;5.09
49593;BMP280;35499;51.482;4.264;2024-02-28T01:04:08;101976.09;;;5.07
49593;BMP280;35499;51.482;4.264;2024-02-28T01:06:33;101970.91;;;5.04
49593;BMP280;35499;51.482;4.264;2024-02-28T01:08:59;101977.69;;;5.03
49593;BMP280;35499;51.482;4.264;2024-02-28T01:11:25;101979.41;;;5.04
49593;BMP280;35499;51.482;4.264;2024-02-28T01:13:50;101979.47;;;5.06
49593;BMP280;35499;51.482;4.264;2024-02-28T01:16:16;101976.09;;;5.07
49593;BMP280;35499;51.482;4.264;2024-02-28T01:18:41;101982.00;;;5.06
49593;BMP280;35499;51.482;4.264;2024-02-28T01:21:07;101985.38;;;5.05
49593;BMP280;35499;51.482;4.264;2024-02-28T01:23:32;101974.31;;;5.03
49593;BMP280;35499;51.482;4.264;2024-02-28T01:25:58;101977.69;;;5.02
49593;BMP280;35499;51.482;4.264;2024-02-28T01:28:23;101977.56;;;4.99
49593;BMP280;35499;51.482;4.264;2024-02-28T01:30:48;101975.00;;;4.98
49593;BMP280;35499;51.482;4.264;2024-02-28T01:33:14;101977.50;;;4.96
49593;BMP280;35499;51.482;4.264;2024-02-28T01:35:40;101973.19;;;4.94
49593;BMP280;35499;51.482;4.264;2024-02-28T01:38:05;101965.50;;;4.91
49593;BMP280;35499;51.482;4.264;2024-02-28T01:40:33;101967.09;;;4.87
49593;BMP280;35499;51.482;4.264;2024-02-28T01:43:08;101967.91;;;4.86
49593;BMP280;35499;51.482;4.264;2024-02-28T01:45:33;101961.91;;;4.84
49593;BMP280;35499;51.482;4.264;2024-02-28T01:47:59;101960.19;;;4.83
49593;BMP280;35499;51.482;4.264;2024-02-28T01:50:25;101967.81;;;4.82
49593;BMP280;35499;51.482;4.264;2024-02-28T01:52:50;101974.56;;;4.82
49593;BMP280;35499;51.482;4.264;2024-02-28T01:55:16;101970.31;;;4.81
49593;BMP280;35499;51.482;4.264;2024-02-28T01:57:42;101978.00;;;4.83
49593;BMP280;35499;51.482;4.264;2024-02-28T02:00:07;101971.28;;;4.85
49593;BMP280;35499;51.482;4.264;2024-02-28T02:02:33;101972.22;;;4.89
49593;BMP280;35499;51.482;4.264;2024-02-28T02:04:59;101967.16;;;4.90
49593;BMP280;35499;51.482;4.264;2024-02-28T02:07:25;101972.31;;;4.93
49593;BMP280;35499;51.482;4.264;2024-02-28T02:09:51;101975.78;;;4.95
49593;BMP280;35499;51.482;4.264;2024-02-28T02:12:17;101976.69;;;4.97
49593;BMP280;35499;51.482;4.264;2024-02-28T02:14:47;101975.88;;;4.98
49593;BMP280;35499;51.482;4.264;2024-02-28T02:17:13;101966.56;;;5.00
49593;BMP280;35499;51.482;4.264;2024-02-28T02:19:38;101966.56;;;5.00
49593;BMP280;35499;51.482;4.264;2024-02-28T02:22:05;101963.16;;;4.99
49593;BMP280;35499;51.482;4.264;2024-02-28T02:24:30;101964.84;;;4.99
49593;BMP280;35499;51.482;4.264;2024-02-28T02:26:59;101974.16;;;4.97
49593;BMP280;35499;51.482;4.264;2024-02-28T02:29:24;101970.63;;;4.92
49593;BMP280;35499;51.482;4.264;2024-02-28T02:31:50;101966.16;;;4.84
49593;BMP280;35499;51.482;4.264;2024-02-28T02:34:15;101972.56;;;4.70
49593;BMP280;35499;51.482;4.264;2024-02-28T02:36:41;101983.09;;;4.53
49593;BMP280;35499;51.482;4.264;2024-02-28T02:39:06;101984.41;;;4.40
49593;BMP280;35499;51.482;4.264;2024-02-28T02:41:33;101985.69;;;4.26
49593;BMP280;35499;51.482;4.264;2024-02-28T02:43:59;101985.31;;;4.13
49593;BMP280;35499;51.482;4.264;2024-02-28T02:46:24;101986.63;;;4.01
49593;BMP280;35499;51.482;4.264;2024-02-28T02:48:49;101983.00;;;3.93
49593;BMP280;35499;51.482;4.264;2024-02-28T02:51:15;101993.06;;;3.90
49593;BMP280;35499;51.482;4.264;2024-02-28T02:53:42;101992.88;;;3.84
49593;BMP280;35499;51.482;4.264;2024-02-28T02:56:07;101990.91;;;3.76
49593;BMP280;35499;51.482;4.264;2024-02-28T02:58:33;101984.78;;;3.70
49593;BMP280;35499;51.482;4.264;2024-02-28T03:00:58;101996.63;;;3.69
49593;BMP280;35499;51.482;4.264;2024-02-28T03:03:23;101994.06;;;3.68
49593;BMP280;35499;51.482;4.264;2024-02-28T03:05:49;101987.31;;;3.68
49593;BMP280;35499;51.482;4.264;2024-02-28T03:08:15;101987.63;;;3.78
49593;BMP280;35499;51.482;4.264;2024-02-28T03:10:40;101990.44;;;3.87
49593;BMP280;35499;51.482;4.264;2024-02-28T03:13:06;101978.81;;;3.95
49593;BMP280;35499;51.482;4.264;2024-02-28T03:15:32;101969.81;;;4.06
49593;BMP280;35499;51.482;4.264;2024-02-28T03:17:58;101957.38;;;4.14
49593;BMP280;35499;51.482;4.264;2024-02-28T03:20:23;101965.19;;;4.20
49593;BMP280;35499;51.482;4.264;2024-02-28T03:22:49;101970.44;;;4.26
49593;BMP280;35499;51.482;4.264;2024-02-28T03:25:14;101972.31;;;4.31
49593;BMP280;35499;51.482;4.264;2024-02-28T03:27:43;101972.38;;;4.34
49593;BMP280;35499;51.482;4.264;2024-02-28T03:30:08;101977.63;;;4.40
49593;BMP280;35499;51.482;4.264;2024-02-28T03:32:33;101971.81;;;4.44
49593;BMP280;35499;51.482;4.264;2024-02-28T03:34:59;101960.06;;;4.49
49593;BMP280;35499;51.482;4.264;2024-02-28T03:37:25;101967.94;;;4.56
49593;BMP280;35499;51.482;4.264;2024-02-28T03:39:51;101961.34;;;4.63
49593;BMP280;35499;51.482;4.264;2024-02-28T03:42:16;101956.44;;;4.70
49593;BMP280;35499;51.482;4.264;2024-02-28T03:44:41;101948.19;;;4.78
49593;BMP280;35499;51.482;4.264;2024-02-28T03:47:07;101958.56;;;4.85
49593;BMP280;35499;51.482;4.264;2024-02-28T03:49:32;101942.53;;;4.89
49593;BMP280;35499;51.482;4.264;2024-02-28T03:51:57;101946.06;;;4.94
49593;BMP280;35499;51.482;4.264;2024-02-28T03:54:23;101950.44;;;4.98
49593;BMP280;35499;51.482;4.264;2024-02-28T03:56:48;101944.59;;;5.03
49593;BMP280;35499;51.482;4.264;2024-02-28T03:59:14;101945.50;;;5.05
49593;BMP280;35499;51.482;4.264;2024-02-28T04:01:39;101947.25;;;5.06
49593;BMP280;35499;51.482;4.264;2024-02-28T04:04:05;101946.38;;;5.06
49593;BMP280;35499;51.482;4.264;2024-02-28T04:06:30;101937.88;;;5.05
49593;BMP280;35499;51.482;4.264;2024-02-28T04:08:55;101945.56;;;5.07
49593;BMP280;35499;51.482;4.264;2024-02-28T04:11:21;101943.03;;;5.08
49593;BMP280;35499;51.482;4.264;2024-02-28T04:13:46;101950.72;;;5.10
49593;BMP280;35499;51.482;4.264;2024-02-28T04:16:12;101954.16;;;5.12
49593;BMP280;35499;51.482;4.264;2024-02-28T04:18:37;101947.41;;;5.14
49593;BMP280;35499;51.482;4.264;2024-02-28T04:21:03;101952.59;;;5.17
49593;BMP280;35499;51.482;4.264;2024-02-28T04:23:28;101962.84;;;5.19
49593;BMP280;35499;51.482;4.264;2024-02-28T04:25:53;101950.16;;;5.21
49593;BMP280;35499;51.482;4.264;2024-02-28T04:28:19;101949.34;;;5.23
49593;BMP280;35499;51.482;4.264;2024-02-28T04:30:44;101951.91;;;5.23
49593;BMP280;35499;51.482;4.264;2024-02-28T04:33:09;101957.00;;;5.23
49593;BMP280;35499;51.482;4.264;2024-02-28T04:35:35;101956.13;;;5.21
49593;BMP280;35499;51.482;4.264;2024-02-28T04:38:00;101961.22;;;5.21
49593;BMP280;35499;51.482;4.264;2024-02-28T04:40:25;101973.13;;;5.22
49593;BMP280;35499;51.482;4.264;2024-02-28T04:42:51;101974.81;;;5.23
49593;BMP280;35499;51.482;4.264;2024-02-28T04:45:16;101979.13;;;5.26
49593;BMP280;35499;51.482;4.264;2024-02-28T04:47:42;101986.03;;;5.30
49593;BMP280;35499;51.482;4.264;2024-02-28T04:50:07;101983.69;;;5.37
49593;BMP280;35499;51.482;4.264;2024-02-28T04:52:33;101993.09;;;5.41
49593;BMP280;35499;51.482;4.264;2024-02-28T04:54:58;101991.47;;;5.43
49593;BMP280;35499;51.482;4.264;2024-02-28T04:57:24;101990.72;;;5.47
49593;BMP280;35499;51.482;4.264;2024-02-28T04:59:49;101988.97;;;5.46
49593;BMP280;35499;51.482;4.264;2024-02-28T05:02:15;101993.22;;;5.45
49593;BMP280;35499;51.482;4.264;2024-02-28T05:04:41;101983.84;;;5.43
49593;BMP280;35499;51.482;4.264;2024-02-28T05:07:06;101982.09;;;5.42
49593;BMP280;35499;51.482;4.264;2024-02-28T05:09:33;101993.97;;;5.41
49593;BMP280;35499;51.482;4.264;2024-02-28T05:11:58;101989.75;;;5.43
49593;BMP280;35499;51.482;4.264;2024-02-28T05:14:24;101998.31;;;5.45
49593;BMP280;35499;51.482;4.264;2024-02-28T05:16:49;102006.00;;;5.48
49593;BMP280;35499;51.482;4.264;2024-02-28T05:19:15;102012.06;;;5.52
49593;BMP280;35499;51.482;4.264;2024-02-28T05:21:43;102009.56;;;5.54
49593;BMP280;35499;51.482;4.264;2024-02-28T05:24:09;102010.50;;;5.58
49593;BMP280;35499;51.482;4.264;2024-02-28T05:26:35;102011.47;;;5.61
49593;BMP280;35499;51.482;4.264;2024-02-28T05:29:02;102017.50;;;5.65
49593;BMP280;35499;51.482;4.264;2024-02-28T05:31:28;102009.09;;;5.67
49593;BMP280;35499;51.482;4.264;2024-02-28T05:33:55;101997.22;;;5.69
49593;BMP280;35499;51.482;4.264;2024-02-28T05:36:26;102000.69;;;5.71
49593;BMP280;35499;51.482;4.264;2024-02-28T05:38:53;102001.56;;;5.73
49593;BMP280;35499;51.482;4.264;2024-02-28T05:41:19;101995.75;;;5.77
49593;BMP280;35499;51.482;4.264;2024-02-28T05:43:44;101984.69;;;5.78
49593;BMP280;35499;51.482;4.264;2024-02-28T05:46:11;101987.31;;;5.81
49593;BMP280;35499;51.482;4.264;2024-02-28T05:48:36;101988.22;;;5.83
49593;BMP280;35499;51.482;4.264;2024-02-28T05:51:02;101983.19;;;5.86
49593;BMP280;35499;51.482;4.264;2024-02-28T05:53:28;101979.88;;;5.89
49593;BMP280;35499;51.482;4.264;2024-02-28T05:55:57;101980.78;;;5.91
49593;BMP280;35499;51.482;4.264;2024-02-28T05:58:23;101983.38;;;5.94
49593;BMP280;35499;51.482;4.264;2024-02-28T06:00:50;101981.75;;;5.96
49593;BMP280;35499;51.482;4.264;2024-02-28T06:03:16;101980.06;;;5.98
49593;BMP280;35499;51.482;4.264;2024-02-28T06:05:41;101982.69;;;6.01
49593;BMP280;35499;51.482;4.264;2024-02-28T06:08:06;101974.22;;;6.02
49593;BMP280;35499;51.482;4.264;2024-02-28T06:10:32;101975.09;;;6.04
49593;BMP280;35499;51.482;4.264;2024-02-28T06:12:57;101980.28;;;6.07
49593;BMP280;35499;51.482;4.264;2024-02-28T06:15:22;101980.28;;;6.07
49593;BMP280;35499;51.482;4.264;2024-02-28T06:17:48;101970.97;;;6.07
49593;BMP280;35499;51.482;4.264;2024-02-28T06:20:13;101972.66;;;6.08
49593;BMP280;35499;51.482;4.264;2024-02-28T06:22:39;101978.66;;;6.10
49593;BMP280;35499;51.482;4.264;2024-02-28T06:25:05;101971.06;;;6.12
49593;BMP280;35499;51.482;4.264;2024-02-28T06:27:33;101977.03;;;6.14
49593;BMP280;35499;51.482;4.264;2024-02-28T06:29:59;101981.34;;;6.16
49593;BMP280;35499;51.482;4.264;2024-02-28T06:32:24;101979.66;;;6.17
49593;BMP280;35499;51.482;4.264;2024-02-28T06:34:50;101990.72;;;6.19
49593;BMP280;35499;51.482;4.264;2024-02-28T06:37:15;101990.81;;;6.22
49593;BMP280;35499;51.482;4.264;2024-02-28T06:39:44;101999.34;;;6.24
49593;BMP280;35499;51.482;4.264;2024-02-28T06:42:09;102000.19;;;6.24
49593;BMP280;35499;51.482;4.264;2024-02-28T06:44:34;102013.03;;;6.27
49593;BMP280;35499;51.482;4.264;2024-02-28T06:47:00;102011.34;;;6.27
49593;BMP280;35499;51.482;4.264;2024-02-28T06:49:25;102012.22;;;6.29
49593;BMP280;35499;51.482;4.264;2024-02-28T06:51:51;102014.00;;;6.32
49593;BMP280;35499;51.482;4.264;2024-02-28T06:54:16;102025.06;;;6.34
49593;BMP280;35499;51.482;4.264;2024-02-28T06:56:41;102028.56;;;6.37
49593;BMP280;35499;51.482;4.264;2024-02-28T06:59:07;102033.69;;;6.39
49593;BMP280;35499;51.482;4.264;2024-02-28T07:01:32;102037.13;;;6.41
49593;BMP280;35499;51.482;4.264;2024-02-28T07:03:58;102034.59;;;6.41
49593;BMP280;35499;51.482;4.264;2024-02-28T07:06:23;102026.97;;;6.42
49593;BMP280;35499;51.482;4.264;2024-02-28T07:08:49;102034.63;;;6.43
49593;BMP280;35499;51.482;4.264;2024-02-28T07:11:15;102037.22;;;6.45
49593;BMP280;35499;51.482;4.264;2024-02-28T07:13:41;102040.69;;;6.47
49593;BMP280;35499;51.482;4.264;2024-02-28T07:16:06;102041.56;;;6.47
49593;BMP280;35499;51.482;4.264;2024-02-28T07:18:33;102044.94;;;6.48
49593;BMP280;35499;51.482;4.264;2024-02-28T07:20:58;102044.13;;;6.49
49593;BMP280;35499;51.482;4.264;2024-02-28T07:23:24;102050.03;;;6.48
49593;BMP280;35499;51.482;4.264;2024-02-28T07:25:50;102049.16;;;6.46
49593;BMP280;35499;51.482;4.264;2024-02-28T07:28:15;102058.47;;;6.44
49593;BMP280;35499;51.482;4.264;2024-02-28T07:30:40;102057.59;;;6.43
49593;BMP280;35499;51.482;4.264;2024-02-28T07:33:06;102054.19;;;6.43
49593;BMP280;35499;51.482;4.264;2024-02-28T07:35:31;102042.28;;;6.42
49593;BMP280;35499;51.482;4.264;2024-02-28T07:37:56;102047.38;;;6.42
49593;BMP280;35499;51.482;4.264;2024-02-28T07:40:22;102049.09;;;6.43
49593;BMP280;35499;51.482;4.264;2024-02-28T07:42:47;102047.44;;;6.45
49593;BMP280;35499;51.482;4.264;2024-02-28T07:45:13;102046.63;;;6.46
49593;BMP280;35499;51.482;4.264;2024-02-28T07:47:38;102051.75;;;6.47
49593;BMP280;35499;51.482;4.264;2024-02-28T07:50:06;102048.44;;;6.51
49593;BMP280;35499;51.482;4.264;2024-02-28T07:52:31;102052.72;;;6.52
49593;BMP280;35499;51.482;4.264;2024-02-28T07:55:00;102062.94;;;6.54
49593;BMP280;35499;51.482;4.264;2024-02-28T07:57:26;102068.13;;;6.57
49593;BMP280;35499;51.482;4.264;2024-02-28T07:59:51;102063.06;;;6.60
49593;BMP280;35499;51.482;4.264;2024-02-28T08:02:16;102063.13;;;6.62
49593;BMP280;35499;51.482;4.264;2024-02-28T08:04:45;102058.94;;;6.66
49593;BMP280;35499;51.482;4.264;2024-02-28T08:07:10;102073.53;;;6.71
49593;BMP280;35499;51.482;4.264;2024-02-28T08:09:35;102076.22;;;6.78
49593;BMP280;35499;51.482;4.264;2024-02-28T08:12:01;102081.47;;;6.84
49593;BMP280;35499;51.482;4.264;2024-02-28T08:14:27;102082.44;;;6.91
49593;BMP280;35499;51.482;4.264;2024-02-28T08:16:52;102088.47;;;6.94
49593;BMP280;35499;51.482;4.264;2024-02-28T08:19:17;102092.78;;;6.98
49593;BMP280;35499;51.482;4.264;2024-02-28T08:21:43;102091.22;;;7.04
49593;BMP280;35499;51.482;4.264;2024-02-28T08:24:08;102091.34;;;7.10
49593;BMP280;35499;51.482;4.264;2024-02-28T08:26:34;102093.22;;;7.17
49593;BMP280;35499;51.482;4.264;2024-02-28T08:28:59;102095.03;;;7.24
49593;BMP280;35499;51.482;4.264;2024-02-28T08:31:24;102099.34;;;7.26
49593;BMP280;35499;51.482;4.264;2024-02-28T08:33:50;102094.34;;;7.32
49593;BMP280;35499;51.482;4.264;2024-02-28T08:36:15;102105.47;;;7.35
49593;BMP280;35499;51.482;4.264;2024-02-28T08:38:41;102104.69;;;7.39
49593;BMP280;35499;51.482;4.264;2024-02-28T08:41:07;102108.19;;;7.44
49593;BMP280;35499;51.482;4.264;2024-02-28T08:43:41;102116.84;;;7.50
49593;BMP280;35499;51.482;4.264;2024-02-28T08:46:06;102106.66;;;7.53
49593;BMP280;35499;51.482;4.264;2024-02-28T08:48:33;102105.03;;;7.58
49593;BMP280;35499;51.482;4.264;2024-02-28T08:50:58;102096.66;;;7.65
49593;BMP280;35499;51.482;4.264;2024-02-28T08:53:24;102110.38;;;7.70
49593;BMP280;35499;51.482;4.264;2024-02-28T08:55:49;102092.53;;;7.71
49593;BMP280;35499;51.482;4.264;2024-02-28T08:58:15;102090.94;;;7.79
49593;BMP280;35499;51.482;4.264;2024-02-28T09:00:40;102085.06;;;7.85
49593;BMP280;35499;51.482;4.264;2024-02-28T09:03:05;102095.53;;;7.98
49593;BMP280;35499;51.482;4.264;2024-02-28T09:05:31;102101.13;;;8.28
49593;BMP280;35499;51.482;4.264;2024-02-28T09:07:56;102087.25;;;8.73
49593;BMP280;35499;51.482;4.264;2024-02-28T09:10:23;102087.00;;;9.22
49593;BMP280;35499;51.482;4.264;2024-02-28T09:12:49;102084.94;;;9.68
49593;BMP280;35499;51.482;4.264;2024-02-28T09:15:15;102078.53;;;10.17
49593;BMP280;35499;51.482;4.264;2024-02-28T09:17:40;102079.66;;;10.55
49593;BMP280;35499;51.482;4.264;2024-02-28T09:20:06;102077.19;;;10.82
49593;BMP280;35499;51.482;4.264;2024-02-28T09:22:32;102099.50;;;10.91
49593;BMP280;35499;51.482;4.264;2024-02-28T09:24:57;102097.81;;;10.91
49593;BMP280;35499;51.482;4.264;2024-02-28T09:27:23;102096.06;;;10.84
49593;BMP280;35499;51.482;4.264;2024-02-28T09:29:49;102091.72;;;10.74
49593;BMP280;35499;51.482;4.264;2024-02-28T09:32:15;102101.16;;;10.75
49593;BMP280;35499;51.482;4.264;2024-02-28T09:34:40;102095.13;;;10.66
49593;BMP280;35499;51.482;4.264;2024-02-28T09:37:05;102085.66;;;10.63
49593;BMP280;35499;51.482;4.264;2024-02-28T09:39:31;102090.81;;;10.66
49593;BMP280;35499;51.482;4.264;2024-02-28T09:41:56;102084.06;;;10.80
49593;BMP280;35499;51.482;4.264;2024-02-28T09:44:22;102081.50;;;10.87
49593;BMP280;35499;51.482;4.264;2024-02-28T09:46:51;102090.97;;;10.97
49593;BMP280;35499;51.482;4.264;2024-02-28T09:49:18;102086.72;;;11.06
49593;BMP280;35499;51.482;4.264;2024-02-28T09:51:44;102079.06;;;11.15
49593;BMP280;35499;51.482;4.264;2024-02-28T09:54:09;102067.00;;;11.11
49593;BMP280;35499;51.482;4.264;2024-02-28T09:56:35;102080.75;;;11.22
49593;BMP280;35499;51.482;4.264;2024-02-28T09:59:01;102073.97;;;11.29
49593;BMP280;35499;51.482;4.264;2024-02-28T10:04:33;102072.28;;;11.40
49593;BMP280;35499;51.482;4.264;2024-02-28T10:07:10;102079.16;;;11.35
49593;BMP280;35499;51.482;4.264;2024-02-28T10:09:37;102106.50;;;11.25
49593;BMP280;35499;51.482;4.264;2024-02-28T10:12:03;102092.72;;;11.05
49593;BMP280;35499;51.482;4.264;2024-02-28T10:14:28;102096.91;;;10.84
49593;BMP280;35499;51.482;4.264;2024-02-28T10:16:55;102092.50;;;10.61
49593;BMP280;35499;51.482;4.264;2024-02-28T10:19:20;102088.13;;;10.44
49593;BMP280;35499;51.482;4.264;2024-02-28T10:21:46;102092.34;;;10.37
49593;BMP280;35499;51.482;4.264;2024-02-28T10:24:12;102090.59;;;10.31
49593;BMP280;35499;51.482;4.264;2024-02-28T10:26:45;102082.97;;;10.40
49593;BMP280;35499;51.482;4.264;2024-02-28T10:29:11;102081.31;;;10.52
49593;BMP280;35499;51.482;4.264;2024-02-28T10:31:37;102087.34;;;10.58
49593;BMP280;35499;51.482;4.264;2024-02-28T10:34:03;102086.53;;;10.64
49593;BMP280;35499;51.482;4.264;2024-02-28T10:36:31;102090.78;;;10.57
49593;BMP280;35499;51.482;4.264;2024-02-28T10:38:57;102080.50;;;10.55
49593;BMP280;35499;51.482;4.264;2024-02-28T10:41:25;102086.53;;;10.61
49593;BMP280;35499;51.482;4.264;2024-02-28T10:43:51;102083.97;;;10.71
49593;BMP280;35499;51.482;4.264;2024-02-28T10:46:22;102086.56;;;10.71
49593;BMP280;35499;51.482;4.264;2024-02-28T10:48:49;102092.56;;;10.69
49593;BMP280;35499;51.482;4.264;2024-02-28T10:51:20;102097.72;;;10.70
49593;BMP280;35499;51.482;4.264;2024-02-28T10:53:49;102092.56;;;10.72
49593;BMP280;35499;51.482;4.264;2024-02-28T10:56:16;102101.16;;;10.75
49593;BMP280;35499;51.482;4.264;2024-02-28T10:58:51;102107.94;;;10.67
49593;BMP280;35499;51.482;4.264;2024-02-28T11:01:17;102103.56;;;10.46
49593;BMP280;35499;51.482;4.264;2024-02-28T11:03:43;102097.50;;;10.35
49593;BMP280;35499;51.482;4.264;2024-02-28T11:06:20;102094.84;;;10.23
49593;BMP280;35499;51.482;4.264;2024-02-28T11:08:47;102093.91;;;10.14
49593;BMP280;35499;51.482;4.264;2024-02-28T11:11:22;102087.03;;;10.06
49593;BMP280;35499;51.482;4.264;2024-02-28T11:13:57;102099.81;;;10.03
49593;BMP280;35499;51.482;4.264;2024-02-28T11:16:32;102081.84;;;10.03
49593;BMP280;35499;51.482;4.264;2024-02-28T11:18:58;102081.88;;;10.07
49593;BMP280;35499;51.482;4.264;2024-02-28T11:21:28;102073.34;;;10.10
49593;BMP280;35499;51.482;4.264;2024-02-28T11:23:57;102069.09;;;10.13
49593;BMP280;35499;51.482;4.264;2024-02-28T11:26:23;102071.72;;;10.20
49593;BMP280;35499;51.482;4.264;2024-02-28T11:28:49;102058.94;;;10.31
49593;BMP280;35499;51.482;4.264;2024-02-28T11:31:15;102063.31;;;10.45
49593;BMP280;35499;51.482;4.264;2024-02-28T11:33:41;102053.16;;;10.65
49593;BMP280;35499;51.482;4.264;2024-02-28T11:36:06;102055.78;;;10.87
49593;BMP280;35499;51.482;4.264;2024-02-28T11:38:34;102055.00;;;11.04
49593;BMP280;35499;51.482;4.264;2024-02-28T11:41:03;102048.16;;;11.12
49593;BMP280;35499;51.482;4.264;2024-02-28T11:43:33;102049.03;;;11.12
49593;BMP280;35499;51.482;4.264;2024-02-28T11:45:59;102043.06;;;11.15
49593;BMP280;35499;51.482;4.264;2024-02-28T11:48:25;102044.75;;;11.17
49593;BMP280;35499;51.482;4.264;2024-02-28T11:50:53;102046.47;;;11.14
49593;BMP280;35499;51.482;4.264;2024-02-28T11:53:18;102037.88;;;11.09
49593;BMP280;35499;51.482;4.264;2024-02-28T11:55:45;102039.63;;;11.10
49593;BMP280;35499;51.482;4.264;2024-02-28T11:58:13;102037.91;;;11.18
49593;BMP280;35499;51.482;4.264;2024-02-28T12:00:50;102051.63;;;11.23
49593;BMP280;35499;51.482;4.264;2024-02-28T12:03:23;102043.91;;;11.27
49593;BMP280;35499;51.482;4.264;2024-02-28T12:05:48;102030.28;;;11.35
49593;BMP280;35499;51.482;4.264;2024-02-28T12:08:14;102039.72;;;11.45
49593;BMP280;35499;51.482;4.264;2024-02-28T12:10:39;102040.59;;;11.50
49593;BMP280;35499;51.482;4.264;2024-02-28T12:13:05;102032.84;;;11.56
49593;BMP280;35499;51.482;4.264;2024-02-28T12:15:31;102028.56;;;11.62
49593;BMP280;35499;51.482;4.264;2024-02-28T12:17:56;102032.84;;;11.56
49593;BMP280;35499;51.482;4.264;2024-02-28T12:20:23;102030.25;;;11.41
49593;BMP280;35499;51.482;4.264;2024-02-28T12:22:48;102025.13;;;11.29
49593;BMP280;35499;51.482;4.264;2024-02-28T12:25:14;102028.47;;;11.21
49593;BMP280;35499;51.482;4.264;2024-02-28T12:27:40;102025.91;;;11.09
49593;BMP280;35499;51.482;4.264;2024-02-28T12:30:06;102015.56;;;11.02
49593;BMP280;35499;51.482;4.264;2024-02-28T12:32:31;102020.69;;;10.93
49593;BMP280;35499;51.482;4.264;2024-02-28T12:34:57;102006.97;;;10.89
49593;BMP280;35499;51.482;4.264;2024-02-28T12:37:22;102031.78;;;10.79
49593;BMP280;35499;51.482;4.264;2024-02-28T12:39:47;102024.94;;;10.78
49593;BMP280;35499;51.482;4.264;2024-02-28T12:42:13;102021.50;;;10.78
49593;BMP280;35499;51.482;4.264;2024-02-28T12:44:38;102023.22;;;10.77
49593;BMP280;35499;51.482;4.264;2024-02-28T12:47:06;102025.75;;;10.76
49593;BMP280;35499;51.482;4.264;2024-02-28T12:49:31;102030.94;;;10.79
49593;BMP280;35499;51.482;4.264;2024-02-28T12:51:57;102034.38;;;10.81
49593;BMP280;35499;51.482;4.264;2024-02-28T12:54:22;102031.81;;;10.81
49593;BMP280;35499;51.482;4.264;2024-02-28T12:56:48;102026.63;;;10.78
49593;BMP280;35499;51.482;4.264;2024-02-28T12:59:13;102029.19;;;10.73
49593;BMP280;35499;51.482;4.264;2024-02-28T13:01:39;102022.31;;;10.65
49593;BMP280;35499;51.482;4.264;2024-02-28T13:04:04;102022.28;;;10.62
49593;BMP280;35499;51.482;4.264;2024-02-28T13:06:30;102018.84;;;10.57
49593;BMP280;35499;51.482;4.264;2024-02-28T13:08:55;102011.13;;;10.53
49593;BMP280;35499;51.482;4.264;2024-02-28T13:11:22;102012.81;;;10.45
49593;BMP280;35499;51.482;4.264;2024-02-28T13:13:48;102005.06;;;10.35
49593;BMP280;35499;51.482;4.264;2024-02-28T13:16:15;102005.00;;;10.29
49593;BMP280;35499;51.482;4.264;2024-02-28T13:18:40;101992.13;;;10.22
49593;BMP280;35499;51.482;4.264;2024-02-28T13:21:06;101997.22;;;10.18
49593;BMP280;35499;51.482;4.264;2024-02-28T13:23:31;101998.06;;;10.14
49593;BMP280;35499;51.482;4.264;2024-02-28T13:25:57;101999.75;;;10.09
49593;BMP280;35499;51.482;4.264;2024-02-28T13:28:22;101997.13;;;10.01
49593;BMP280;35499;51.482;4.264;2024-02-28T13:30:58;101989.38;;;9.90
49593;BMP280;35499;51.482;4.264;2024-02-28T13:33:24;101987.59;;;9.82
49593;BMP280;35499;51.482;4.264;2024-02-28T13:35:50;101984.09;;;9.74
49593;BMP280;35499;51.482;4.264;2024-02-28T13:38:17;101979.75;;;9.64
49593;BMP280;35499;51.482;4.264;2024-02-28T13:40:42;101983.13;;;9.60
49593;BMP280;35499;51.482;4.264;2024-02-28T13:43:10;101977.97;;;9.57
49593;BMP280;35499;51.482;4.264;2024-02-28T13:45:35;101983.97;;;9.56
49593;BMP280;35499;51.482;4.264;2024-02-28T13:48:01;101975.38;;;9.54
49593;BMP280;35499;51.482;4.264;2024-02-28T13:50:27;101977.97;;;9.56
49593;BMP280;35499;51.482;4.264;2024-02-28T13:52:57;101976.25;;;9.58
49593;BMP280;35499;51.482;4.264;2024-02-28T13:55:22;101972.88;;;9.62
49593;BMP280;35499;51.482;4.264;2024-02-28T13:57:48;101975.50;;;9.66
49593;BMP280;35499;51.482;4.264;2024-02-28T14:00:13;101964.38;;;9.71